CDT,Max TemperatureF,Mean TemperatureF,Min TemperatureF,Max Dew PointF,MeanDew PointF,Min DewpointF,Max Humidity, Mean Humidity, Min Humidity, Max Sea Level PressureIn, Mean Sea Level PressureIn, Min Sea Level PressureIn, Max VisibilityMiles, Mean VisibilityMiles, Min VisibilityMiles, Max Wind SpeedMPH, Mean Wind SpeedMPH, Max Gust SpeedMPH,PrecipitationIn, CloudCover, Events, WindDirDegrees
2013-5-1,78,72,66,70,66,63,94,85,61,29.90,29.86,29.80,10,6,0,17,4,,0.00,4,Fog,34
2013-5-2,77,70,64,66,64,62,94,86,65,29.94,29.90,29.83,10,7,4,9,4,,0.09,6,Rain,353
2013-5-3,68,58,48,66,55,41,91,81,68,30.05,29.95,29.89,10,6,3,23,9,26,0.09,6,,319
2013-5-4,69,56,42,50,43,37,93,68,31,30.04,29.99,29.92,10,8,6,15,5,,0.00,0,,254
2013-5-5,68,60,52,56,47,39,82,65,37,30.06,29.97,29.89,10,9,5,58,6,,0.00,1,,288
2013-5-6,71,58,46,55,48,43,93,74,35,30.08,30.03,29.97,10,9,2,15,3,,0.00,0,,232
2013-5-7,80,68,57,61,57,54,94,74,39,30.07,30.03,29.99,10,8,5,16,3,,0.00,1,,231
2013-5-8,78,66,55,66,59,54,100,79,44,30.13,30.07,30.03,10,6,0,12,3,,0.00,2,Fog,153
2013-5-9,80,72,64,69,65,61,90,77,58,30.12,30.06,30.02,10,8,7,21,8,,0.00,4,,132
2013-5-10,75,68,62,70,65,61,94,88,83,30.09,29.98,29.92,10,6,0,115,13,40,0.00,6,Rain-Thunderstorm,117
2013-5-11,73,68,62,68,64,55,94,89,73,30.31,30.01,29.96,10,4,0,12,4,,0.20,6,Fog-Rain-Thunderstorm,21
2013-5-12,77,70,63,65,60,52,94,79,44,30.15,30.09,30.04,10,6,0,14,3,,0.00,4,Fog,4
2013-5-13,75,66,57,58,51,39,88,65,27,30.31,30.22,30.15,10,9,7,14,6,,0.00,1,,20
2013-5-14,80,66,53,59,55,48,94,75,32,30.30,30.22,30.18,10,7,0,13,2,,0.00,0,Fog,150
2013-5-15,78,68,59,64,59,55,94,76,44,30.20,30.12,30.03,10,7,1,12,3,,0.00,1,,127
2013-5-16,80,72,63,69,65,60,90,75,57,30.04,29.98,29.93,10,8,7,17,7,18,0.00,4,,153
2013-5-17,82,78,73,70,70,69,87,80,66,30.05,29.99,29.95,10,7,5,12,8,17,0.00,6,,161
2013-5-18,84,79,74,72,69,66,89,77,55,30.07,30.02,29.99,10,7,5,12,7,,0.00,3,,159
2013-5-19,84,80,76,72,71,69,84,78,62,30.03,29.99,29.96,10,7,6,14,8,,0.00,5,,147
2013-5-20,87,82,76,72,72,71,84,77,58,30.02,29.97,29.93,10,7,5,21,10,21,0.00,7,,133
2013-5-21,86,82,77,72,71,70,81,75,58,29.98,29.92,29.85,10,8,6,21,11,20,0.00,7,,139
2013-5-22,80,74,69,72,70,63,92,83,73,30.03,29.93,29.88,10,7,3,23,6,,0.00,5,Rain-Thunderstorm,110
2013-5-23,87,78,70,73,70,66,94,81,52,30.06,30.00,29.95,10,5,0,12,3,,0.00,4,Fog-Rain-Thunderstorm,175
2013-5-24,91,78,66,69,65,63,94,73,41,30.16,30.10,30.03,10,9,7,12,3,,0.00,0,,359
2013-5-25,86,80,73,70,65,59,86,69,42,30.21,30.15,30.12,10,9,7,14,4,,0.00,2,,71
2013-5-26,86,78,69,70,64,55,90,72,39,30.18,30.13,30.10,10,9,7,14,3,,0.00,1,,110
2013-5-27,84,76,67,70,65,62,92,75,55,30.13,30.08,30.03,10,9,5,16,3,,0.00,1,,134
2013-5-28,84,76,68,68,65,60,89,73,45,30.07,30.03,29.99,10,8,6,21,4,,0.00,2,,110
2013-5-29,84,78,73,73,71,69,89,80,62,30.00,29.96,29.93,10,7,5,17,8,17,0.06,5,Rain,124
2013-5-30,86,81,76,73,72,70,86,77,62,30.01,29.96,29.93,10,8,6,22,10,16,0.00,4,,120
2013-5-31,87,82,77,73,72,70,83,74,55,30.01,29.96,29.94,10,8,7,17,9,,0.00,4,,133